Terminal Aerodrome Forecast
Issued by NWS

Home | Current Version | Previous Version | Text Only | Print | Product List | Glossary On
Versions: 1 2 3 4 5 6 7 8 9 10 11 12 13 14 15 16 17 18 19 20
000
FTUS43 KEAX 252300
TAFMKC
TAF
KMKC 252320Z 2600/2624 08005KT P6SM SKC
     FM260900 12007KT 3SM BR BKN010
     FM261600 15012G23KT P6SM SKC=

USA.gov is the U.S. government's official web portal to all federal, state and local government web resources and services.